sensor_id;sensor_type;location;lat;lon;timestamp;P1;durP1;ratioP1;P2;durP2;ratioP2
10479;SDS011;12789;42.610;23.040;2023-04-25T00:00:43;1.20;;;1.20;;
10479;SDS011;12789;42.610;23.040;2023-04-25T00:03:34;1.50;;;1.40;;
10479;SDS011;12789;42.610;23.040;2023-04-25T00:09:29;5.23;;;1.53;;
10479;SDS011;12789;42.610;23.040;2023-04-25T00:12:08;5.53;;;2.10;;
10479;SDS011;12789;42.610;23.040;2023-04-25T00:15:00;6.47;;;2.70;;
10479;SDS011;12789;42.610;23.040;2023-04-25T00:17:53;9.13;;;3.40;;
10479;SDS011;12789;42.610;23.040;2023-04-25T00:20:28;6.80;;;2.57;;
10479;SDS011;12789;42.610;23.040;2023-04-25T00:32:42;4.60;;;2.03;;
10479;SDS011;12789;42.610;23.040;2023-04-25T00:35:29;5.83;;;2.60;;
10479;SDS011;12789;42.610;23.040;2023-04-25T00:38:13;4.67;;;2.30;;
10479;SDS011;12789;42.610;23.040;2023-04-25T00:40:43;5.13;;;2.37;;
10479;SDS011;12789;42.610;23.040;2023-04-25T00:43:16;7.13;;;2.53;;
10479;SDS011;12789;42.610;23.040;2023-04-25T00:45:51;4.57;;;2.90;;
10479;SDS011;12789;42.610;23.040;2023-04-25T00:51:20;4.53;;;2.83;;
10479;SDS011;12789;42.610;23.040;2023-04-25T00:53:58;5.67;;;2.50;;
10479;SDS011;12789;42.610;23.040;2023-04-25T00:57:29;4.57;;;2.47;;
10479;SDS011;12789;42.610;23.040;2023-04-25T00:59:18;5.07;;;2.87;;
10479;SDS011;12789;42.610;23.040;2023-04-25T01:01:57;7.77;;;3.00;;
10479;SDS011;12789;42.610;23.040;2023-04-25T01:04:45;5.23;;;3.10;;
10479;SDS011;12789;42.610;23.040;2023-04-25T01:07:22;5.60;;;3.17;;
10479;SDS011;12789;42.610;23.040;2023-04-25T01:10:06;6.50;;;2.67;;
10479;SDS011;12789;42.610;23.040;2023-04-25T01:12:44;4.67;;;2.70;;
10479;SDS011;12789;42.610;23.040;2023-04-25T01:15:40;5.03;;;2.63;;
10479;SDS011;12789;42.610;23.040;2023-04-25T01:18:15;4.40;;;2.53;;
10479;SDS011;12789;42.610;23.040;2023-04-25T01:23:35;2.77;;;2.20;;
10479;SDS011;12789;42.610;23.040;2023-04-25T01:26:09;3.67;;;2.70;;
10479;SDS011;12789;42.610;23.040;2023-04-25T01:28:45;3.13;;;2.83;;
10479;SDS011;12789;42.610;23.040;2023-04-25T01:31:39;8.57;;;3.40;;
10479;SDS011;12789;42.610;23.040;2023-04-25T01:34:24;5.83;;;3.00;;
10479;SDS011;12789;42.610;23.040;2023-04-25T01:37:06;6.30;;;3.40;;
10479;SDS011;12789;42.610;23.040;2023-04-25T01:39:54;5.90;;;3.17;;
10479;SDS011;12789;42.610;23.040;2023-04-25T01:42:33;5.60;;;2.90;;
10479;SDS011;12789;42.610;23.040;2023-04-25T01:45:08;5.43;;;2.73;;
10479;SDS011;12789;42.610;23.040;2023-04-25T01:48:06;3.40;;;3.10;;
10479;SDS011;12789;42.610;23.040;2023-04-25T01:50:54;4.23;;;3.03;;
10479;SDS011;12789;42.610;23.040;2023-04-25T01:53:31;3.47;;;3.27;;
10479;SDS011;12789;42.610;23.040;2023-04-25T01:58:59;3.97;;;3.57;;
10479;SDS011;12789;42.610;23.040;2023-04-25T02:01:45;5.73;;;3.90;;
10479;SDS011;12789;42.610;23.040;2023-04-25T02:04:25;6.07;;;3.80;;
10479;SDS011;12789;42.610;23.040;2023-04-25T02:07:15;8.33;;;3.43;;
10479;SDS011;12789;42.610;23.040;2023-04-25T02:09:50;11.47;;;4.00;;
10479;SDS011;12789;42.610;23.040;2023-04-25T02:13:25;13.43;;;4.33;;
10479;SDS011;12789;42.610;23.040;2023-04-25T02:18:55;12.97;;;4.20;;
10479;SDS011;12789;42.610;23.040;2023-04-25T02:21:39;10.00;;;4.93;;
10479;SDS011;12789;42.610;23.040;2023-04-25T02:24:34;18.77;;;5.23;;
10479;SDS011;12789;42.610;23.040;2023-04-25T02:27:12;24.33;;;6.30;;
10479;SDS011;12789;42.610;23.040;2023-04-25T02:30:04;24.63;;;6.90;;
10479;SDS011;12789;42.610;23.040;2023-04-25T02:32:58;16.83;;;6.63;;
10479;SDS011;12789;42.610;23.040;2023-04-25T02:35:51;19.43;;;6.40;;
10479;SDS011;12789;42.610;23.040;2023-04-25T02:38:26;19.27;;;6.57;;
10479;SDS011;12789;42.610;23.040;2023-04-25T02:41:27;18.90;;;6.53;;
10479;SDS011;12789;42.610;23.040;2023-04-25T02:44:34;15.47;;;5.57;;
10479;SDS011;12789;42.610;23.040;2023-04-25T02:50:42;17.87;;;5.80;;
10479;SDS011;12789;42.610;23.040;2023-04-25T02:53:16;16.27;;;6.13;;
10479;SDS011;12789;42.610;23.040;2023-04-25T02:55:56;11.77;;;5.10;;
10479;SDS011;12789;42.610;23.040;2023-04-25T02:58:36;10.23;;;5.47;;
10479;SDS011;12789;42.610;23.040;2023-04-25T03:01:16;10.93;;;5.43;;
10479;SDS011;12789;42.610;23.040;2023-04-25T03:06:48;9.53;;;5.17;;
10479;SDS011;12789;42.610;23.040;2023-04-25T03:09:50;9.50;;;5.27;;
10479;SDS011;12789;42.610;23.040;2023-04-25T03:12:58;11.70;;;5.97;;
10479;SDS011;12789;42.610;23.040;2023-04-25T03:15:43;8.63;;;6.10;;
10479;SDS011;12789;42.610;23.040;2023-04-25T03:21:23;13.03;;;7.20;;
10479;SDS011;12789;42.610;23.040;2023-04-25T03:24:22;10.13;;;7.23;;
10479;SDS011;12789;42.610;23.040;2023-04-25T03:27:08;8.97;;;7.73;;
10479;SDS011;12789;42.610;23.040;2023-04-25T03:29:59;9.90;;;8.23;;
10479;SDS011;12789;42.610;23.040;2023-04-25T03:33:00;9.70;;;7.33;;
10479;SDS011;12789;42.610;23.040;2023-04-25T03:35:38;7.53;;;6.83;;
10479;SDS011;12789;42.610;23.040;2023-04-25T03:38:44;7.00;;;6.40;;
10479;SDS011;12789;42.610;23.040;2023-04-25T03:41:42;6.87;;;6.37;;
10479;SDS011;12789;42.610;23.040;2023-04-25T03:44:38;6.80;;;6.17;;
10479;SDS011;12789;42.610;23.040;2023-04-25T03:47:16;8.63;;;7.07;;
10479;SDS011;12789;42.610;23.040;2023-04-25T03:50:05;6.70;;;6.10;;
10479;SDS011;12789;42.610;23.040;2023-04-25T03:53:34;8.20;;;6.80;;
10479;SDS011;12789;42.610;23.040;2023-04-25T03:56:11;7.73;;;7.03;;
10479;SDS011;12789;42.610;23.040;2023-04-25T03:59:01;12.23;;;7.93;;
10479;SDS011;12789;42.610;23.040;2023-04-25T04:02:12;8.93;;;7.70;;
10479;SDS011;12789;42.610;23.040;2023-04-25T04:04:54;9.07;;;8.10;;
10479;SDS011;12789;42.610;23.040;2023-04-25T04:10:39;7.70;;;6.90;;
10479;SDS011;12789;42.610;23.040;2023-04-25T04:13:48;7.37;;;6.67;;
10479;SDS011;12789;42.610;23.040;2023-04-25T04:16:36;8.50;;;7.70;;
10479;SDS011;12789;42.610;23.040;2023-04-25T04:22:38;17.73;;;11.87;;
10479;SDS011;12789;42.610;23.040;2023-04-25T04:25:21;18.43;;;12.03;;
10479;SDS011;12789;42.610;23.040;2023-04-25T04:28:18;23.30;;;13.93;;
10479;SDS011;12789;42.610;23.040;2023-04-25T04:31:26;16.20;;;10.83;;
10479;SDS011;12789;42.610;23.040;2023-04-25T04:34:04;8.90;;;8.10;;
10479;SDS011;12789;42.610;23.040;2023-04-25T04:36:36;9.10;;;8.30;;
10479;SDS011;12789;42.610;23.040;2023-04-25T04:42:02;4.90;;;4.50;;
10479;SDS011;12789;42.610;23.040;2023-04-25T04:44:36;4.13;;;3.83;;
10479;SDS011;12789;42.610;23.040;2023-04-25T04:47:16;4.20;;;3.80;;
10479;SDS011;12789;42.610;23.040;2023-04-25T04:49:55;4.73;;;4.33;;
10479;SDS011;12789;42.610;23.040;2023-04-25T04:52:34;4.60;;;4.20;;
10479;SDS011;12789;42.610;23.040;2023-04-25T04:55:15;4.90;;;4.40;;
10479;SDS011;12789;42.610;23.040;2023-04-25T04:58:07;4.90;;;4.50;;
10479;SDS011;12789;42.610;23.040;2023-04-25T05:00:45;5.23;;;4.73;;
10479;SDS011;12789;42.610;23.040;2023-04-25T05:03:22;8.70;;;6.23;;
10479;SDS011;12789;42.610;23.040;2023-04-25T05:05:55;9.37;;;6.33;;
10479;SDS011;12789;42.610;23.040;2023-04-25T05:08:46;6.90;;;6.20;;
10479;SDS011;12789;42.610;23.040;2023-04-25T05:12:18;5.77;;;5.07;;
10479;SDS011;12789;42.610;23.040;2023-04-25T05:14:52;6.13;;;5.53;;
10479;SDS011;12789;42.610;23.040;2023-04-25T05:17:25;5.80;;;5.20;;
10479;SDS011;12789;42.610;23.040;2023-04-25T05:20:01;7.43;;;5.20;;
10479;SDS011;12789;42.610;23.040;2023-04-25T05:22:35;6.50;;;5.73;;
10479;SDS011;12789;42.610;23.040;2023-04-25T05:25:29;6.90;;;5.70;;
10479;SDS011;12789;42.610;23.040;2023-04-25T05:28:13;11.30;;;5.83;;
10479;SDS011;12789;42.610;23.040;2023-04-25T05:30:52;15.53;;;6.17;;
10479;SDS011;12789;42.610;23.040;2023-04-25T05:33:41;13.00;;;6.30;;
10479;SDS011;12789;42.610;23.040;2023-04-25T05:39:20;16.73;;;7.03;;
10479;SDS011;12789;42.610;23.040;2023-04-25T05:42:05;14.13;;;5.57;;
10479;SDS011;12789;42.610;23.040;2023-04-25T05:44:39;8.63;;;4.87;;
10479;SDS011;12789;42.610;23.040;2023-04-25T05:50:02;4.10;;;3.57;;
10479;SDS011;12789;42.610;23.040;2023-04-25T05:52:41;8.07;;;4.37;;
10479;SDS011;12789;42.610;23.040;2023-04-25T05:55:11;5.03;;;4.30;;
10479;SDS011;12789;42.610;23.040;2023-04-25T05:57:42;6.13;;;4.23;;
10479;SDS011;12789;42.610;23.040;2023-04-25T06:00:20;4.20;;;3.80;;
10479;SDS011;12789;42.610;23.040;2023-04-25T06:02:55;8.23;;;5.60;;
10479;SDS011;12789;42.610;23.040;2023-04-25T06:05:35;4.13;;;3.45;;
10479;SDS011;12789;42.610;23.040;2023-04-25T06:08:10;2.67;;;2.47;;
10479;SDS011;12789;42.610;23.040;2023-04-25T06:10:48;5.43;;;3.13;;
10479;SDS011;12789;42.610;23.040;2023-04-25T06:13:21;3.95;;;3.28;;
10479;SDS011;12789;42.610;23.040;2023-04-25T06:15:50;3.90;;;3.33;;
10479;SDS011;12789;42.610;23.040;2023-04-25T06:18:25;3.60;;;3.10;;
10479;SDS011;12789;42.610;23.040;2023-04-25T06:20:59;4.25;;;3.65;;
10479;SDS011;12789;42.610;23.040;2023-04-25T06:23:38;4.63;;;3.30;;
10479;SDS011;12789;42.610;23.040;2023-04-25T06:26:22;3.42;;;3.08;;
10479;SDS011;12789;42.610;23.040;2023-04-25T06:29:06;3.90;;;3.60;;
10479;SDS011;12789;42.610;23.040;2023-04-25T06:31:42;6.07;;;3.70;;
10479;SDS011;12789;42.610;23.040;2023-04-25T06:34:26;3.10;;;2.90;;
10479;SDS011;12789;42.610;23.040;2023-04-25T06:37:11;3.42;;;3.08;;
10479;SDS011;12789;42.610;23.040;2023-04-25T06:39:42;3.35;;;3.05;;
10479;SDS011;12789;42.610;23.040;2023-04-25T06:42:11;3.53;;;3.15;;
10479;SDS011;12789;42.610;23.040;2023-04-25T06:44:46;5.43;;;3.65;;
10479;SDS011;12789;42.610;23.040;2023-04-25T06:47:16;4.53;;;3.50;;
10479;SDS011;12789;42.610;23.040;2023-04-25T06:50:07;3.95;;;3.45;;
10479;SDS011;12789;42.610;23.040;2023-04-25T06:52:57;5.50;;;3.35;;
10479;SDS011;12789;42.610;23.040;2023-04-25T06:55:27;4.30;;;2.90;;
10479;SDS011;12789;42.610;23.040;2023-04-25T06:58:00;3.13;;;2.80;;
10479;SDS011;12789;42.610;23.040;2023-04-25T07:00:37;2.85;;;2.65;;
10479;SDS011;12789;42.610;23.040;2023-04-25T07:03:20;3.17;;;2.72;;
10479;SDS011;12789;42.610;23.040;2023-04-25T07:06:06;5.00;;;3.15;;
10479;SDS011;12789;42.610;23.040;2023-04-25T07:08:51;2.85;;;2.63;;
10479;SDS011;12789;42.610;23.040;2023-04-25T07:11:51;4.70;;;3.30;;
10479;SDS011;12789;42.610;23.040;2023-04-25T07:14:24;3.05;;;2.75;;
10479;SDS011;12789;42.610;23.040;2023-04-25T07:16:58;2.33;;;2.22;;
10479;SDS011;12789;42.610;23.040;2023-04-25T07:19:34;2.78;;;2.58;;
10479;SDS011;12789;42.610;23.040;2023-04-25T07:22:03;3.05;;;2.60;;
10479;SDS011;12789;42.610;23.040;2023-04-25T07:24:41;3.47;;;2.83;;
10479;SDS011;12789;42.610;23.040;2023-04-25T07:27:14;2.97;;;2.75;;
10479;SDS011;12789;42.610;23.040;2023-04-25T07:29:44;2.83;;;2.63;;
10479;SDS011;12789;42.610;23.040;2023-04-25T07:32:30;3.00;;;2.80;;
10479;SDS011;12789;42.610;23.040;2023-04-25T07:34:58;2.33;;;2.15;;
10479;SDS011;12789;42.610;23.040;2023-04-25T07:37:29;4.43;;;3.58;;
10479;SDS011;12789;42.610;23.040;2023-04-25T07:42:52;3.33;;;3.13;;
10479;SDS011;12789;42.610;23.040;2023-04-25T07:45:40;4.13;;;2.90;;
10479;SDS011;12789;42.610;23.040;2023-04-25T07:48:24;2.53;;;2.30;;
10479;SDS011;12789;42.610;23.040;2023-04-25T07:51:04;2.28;;;2.08;;
10479;SDS011;12789;42.610;23.040;2023-04-25T07:53:35;2.00;;;1.90;;
10479;SDS011;12789;42.610;23.040;2023-04-25T07:56:13;3.63;;;2.00;;
10479;SDS011;12789;42.610;23.040;2023-04-25T07:58:44;1.30;;;1.30;;
10479;SDS011;12789;42.610;23.040;2023-04-25T08:01:16;1.50;;;1.40;;
10479;SDS011;12789;42.610;23.040;2023-04-25T08:03:45;1.60;;;1.35;;
10479;SDS011;12789;42.610;23.040;2023-04-25T08:06:19;1.85;;;1.75;;
10479;SDS011;12789;42.610;23.040;2023-04-25T08:09:02;1.10;;;1.10;;
10479;SDS011;12789;42.610;23.040;2023-04-25T08:11:44;3.10;;;1.48;;
10479;SDS011;12789;42.610;23.040;2023-04-25T08:14:25;13.98;;;10.82;;
10479;SDS011;12789;42.610;23.040;2023-04-25T08:17:01;1.83;;;1.20;;
10479;SDS011;12789;42.610;23.040;2023-04-25T08:19:36;1.13;;;1.02;;
10479;SDS011;12789;42.610;23.040;2023-04-25T08:22:06;1.73;;;1.00;;
10479;SDS011;12789;42.610;23.040;2023-04-25T08:24:51;0.95;;;0.95;;
10479;SDS011;12789;42.610;23.040;2023-04-25T08:28:10;1.25;;;1.15;;
10479;SDS011;12789;42.610;23.040;2023-04-25T08:30:41;0.70;;;0.70;;
10479;SDS011;12789;42.610;23.040;2023-04-25T08:33:18;1.60;;;1.13;;
10479;SDS011;12789;42.610;23.040;2023-04-25T08:35:54;3.80;;;1.10;;
10479;SDS011;12789;42.610;23.040;2023-04-25T08:38:46;0.60;;;0.60;;
10479;SDS011;12789;42.610;23.040;2023-04-25T08:41:16;2.05;;;0.93;;
10479;SDS011;12789;42.610;23.040;2023-04-25T08:43:45;1.88;;;0.82;;
10479;SDS011;12789;42.610;23.040;2023-04-25T08:46:31;1.20;;;0.88;;
10479;SDS011;12789;42.610;23.040;2023-04-25T08:49:04;0.50;;;0.50;;
10479;SDS011;12789;42.610;23.040;2023-04-25T08:51:36;3.03;;;0.70;;
10479;SDS011;12789;42.610;23.040;2023-04-25T08:54:11;0.77;;;0.70;;
10479;SDS011;12789;42.610;23.040;2023-04-25T08:56:48;0.63;;;0.63;;
10479;SDS011;12789;42.610;23.040;2023-04-25T08:59:21;0.68;;;0.65;;
10479;SDS011;12789;42.610;23.040;2023-04-25T09:02:03;0.85;;;0.70;;
10479;SDS011;12789;42.610;23.040;2023-04-25T09:04:37;0.77;;;0.45;;
10479;SDS011;12789;42.610;23.040;2023-04-25T09:07:13;2.17;;;1.13;;
10479;SDS011;12789;42.610;23.040;2023-04-25T09:10:04;0.90;;;0.85;;
10479;SDS011;12789;42.610;23.040;2023-04-25T09:13:05;0.75;;;0.60;;
10479;SDS011;12789;42.610;23.040;2023-04-25T09:15:53;0.50;;;0.50;;
10479;SDS011;12789;42.610;23.040;2023-04-25T09:21:25;0.47;;;0.38;;
10479;SDS011;12789;42.610;23.040;2023-04-25T09:24:03;2.28;;;0.45;;
10479;SDS011;12789;42.610;23.040;2023-04-25T09:26:53;0.30;;;0.30;;
10479;SDS011;12789;42.610;23.040;2023-04-25T09:29:45;0.50;;;0.50;;
10479;SDS011;12789;42.610;23.040;2023-04-25T09:32:18;1.40;;;0.40;;
10479;SDS011;12789;42.610;23.040;2023-04-25T09:34:50;1.00;;;0.55;;
10479;SDS011;12789;42.610;23.040;2023-04-25T09:37:31;0.68;;;0.65;;
10479;SDS011;12789;42.610;23.040;2023-04-25T09:40:05;3.70;;;1.65;;
10479;SDS011;12789;42.610;23.040;2023-04-25T09:42:47;3.33;;;1.13;;
10479;SDS011;12789;42.610;23.040;2023-04-25T09:45:23;1.45;;;1.00;;
10479;SDS011;12789;42.610;23.040;2023-04-25T09:47:50;2.35;;;1.13;;
10479;SDS011;12789;42.610;23.040;2023-04-25T09:50:25;1.08;;;1.00;;
10479;SDS011;12789;42.610;23.040;2023-04-25T09:53:06;2.08;;;1.13;;
10479;SDS011;12789;42.610;23.040;2023-04-25T09:55:54;12.32;;;1.65;;
10479;SDS011;12789;42.610;23.040;2023-04-25T09:58:36;4.03;;;1.52;;
10479;SDS011;12789;42.610;23.040;2023-04-25T10:04:39;3.33;;;1.50;;
10479;SDS011;12789;42.610;23.040;2023-04-25T10:07:31;12.77;;;1.67;;
10479;SDS011;12789;42.610;23.040;2023-04-25T10:10:23;1.95;;;0.88;;
10479;SDS011;12789;42.610;23.040;2023-04-25T10:13:10;4.95;;;4.47;;
10479;SDS011;12789;42.610;23.040;2023-04-25T10:15:51;0.70;;;0.70;;
10479;SDS011;12789;42.610;23.040;2023-04-25T10:19:48;0.60;;;0.60;;
10479;SDS011;12789;42.610;23.040;2023-04-25T10:22:16;2.75;;;0.90;;
10479;SDS011;12789;42.610;23.040;2023-04-25T10:24:56;1.10;;;0.70;;
10479;SDS011;12789;42.610;23.040;2023-04-25T10:27:27;2.67;;;1.00;;
10479;SDS011;12789;42.610;23.040;2023-04-25T10:30:03;0.70;;;0.70;;
10479;SDS011;12789;42.610;23.040;2023-04-25T10:32:56;0.60;;;0.60;;
10479;SDS011;12789;42.610;23.040;2023-04-25T10:35:33;2.50;;;0.98;;
10479;SDS011;12789;42.610;23.040;2023-04-25T10:38:15;1.27;;;0.95;;
10479;SDS011;12789;42.610;23.040;2023-04-25T10:40:49;0.88;;;0.75;;
10479;SDS011;12789;42.610;23.040;2023-04-25T10:56:16;3.78;;;0.90;;
10479;SDS011;12789;42.610;23.040;2023-04-25T11:02:19;1.55;;;1.25;;
10479;SDS011;12789;42.610;23.040;2023-04-25T11:04:52;3.90;;;1.65;;
10479;SDS011;12789;42.610;23.040;2023-04-25T11:07:43;2.15;;;0.70;;
10479;SDS011;12789;42.610;23.040;2023-04-25T11:10:39;1.50;;;0.82;;
10479;SDS011;12789;42.610;23.040;2023-04-25T11:17:04;2.92;;;0.90;;
10479;SDS011;12789;42.610;23.040;2023-04-25T11:19:36;1.73;;;1.20;;
10479;SDS011;12789;42.610;23.040;2023-04-25T11:22:09;6.75;;;1.27;;
10479;SDS011;12789;42.610;23.040;2023-04-25T11:24:45;4.57;;;2.47;;
10479;SDS011;12789;42.610;23.040;2023-04-25T11:27:17;5.20;;;1.30;;
10479;SDS011;12789;42.610;23.040;2023-04-25T11:29:44;2.72;;;1.88;;
10479;SDS011;12789;42.610;23.040;2023-04-25T11:32:17;2.42;;;1.15;;
10479;SDS011;12789;42.610;23.040;2023-04-25T11:34:52;1.20;;;1.02;;
10479;SDS011;12789;42.610;23.040;2023-04-25T11:37:35;4.40;;;2.10;;
10479;SDS011;12789;42.610;23.040;2023-04-25T11:40:03;4.97;;;2.78;;
10479;SDS011;12789;42.610;23.040;2023-04-25T11:42:36;4.72;;;2.78;;
10479;SDS011;12789;42.610;23.040;2023-04-25T11:45:07;4.07;;;3.63;;
10479;SDS011;12789;42.610;23.040;2023-04-25T11:47:57;4.07;;;3.70;;
10479;SDS011;12789;42.610;23.040;2023-04-25T11:50:38;8.25;;;5.47;;
10479;SDS011;12789;42.610;23.040;2023-04-25T11:53:09;2.83;;;2.33;;
10479;SDS011;12789;42.610;23.040;2023-04-25T11:55:37;7.45;;;3.50;;
10479;SDS011;12789;42.610;23.040;2023-04-25T11:58:19;2.72;;;2.33;;
10479;SDS011;12789;42.610;23.040;2023-04-25T12:00:55;5.50;;;2.35;;
10479;SDS011;12789;42.610;23.040;2023-04-25T12:03:30;4.82;;;2.63;;
10479;SDS011;12789;42.610;23.040;2023-04-25T12:06:07;3.47;;;2.22;;
10479;SDS011;12789;42.610;23.040;2023-04-25T12:09:00;1.45;;;1.10;;
10479;SDS011;12789;42.610;23.040;2023-04-25T12:11:43;1.05;;;0.80;;
10479;SDS011;12789;42.610;23.040;2023-04-25T12:14:12;2.30;;;2.10;;
10479;SDS011;12789;42.610;23.040;2023-04-25T12:17:02;1.67;;;1.58;;
10479;SDS011;12789;42.610;23.040;2023-04-25T12:19:46;1.98;;;1.77;;
10479;SDS011;12789;42.610;23.040;2023-04-25T12:22:24;9.32;;;6.10;;
10479;SDS011;12789;42.610;23.040;2023-04-25T12:25:13;1.70;;;1.60;;
10479;SDS011;12789;42.610;23.040;2023-04-25T12:28:50;1.65;;;1.15;;
10479;SDS011;12789;42.610;23.040;2023-04-25T12:31:48;6.10;;;1.52;;
10479;SDS011;12789;42.610;23.040;2023-04-25T12:34:53;1.85;;;0.80;;
10479;SDS011;12789;42.610;23.040;2023-04-25T12:37:20;1.23;;;1.13;;
10479;SDS011;12789;42.610;23.040;2023-04-25T12:39:56;1.77;;;1.25;;
10479;SDS011;12789;42.610;23.040;2023-04-25T12:42:22;8.77;;;5.97;;
10479;SDS011;12789;42.610;23.040;2023-04-25T12:44:50;2.90;;;2.63;;
10479;SDS011;12789;42.610;23.040;2023-04-25T12:47:20;1.92;;;1.63;;
10479;SDS011;12789;42.610;23.040;2023-04-25T12:49:47;2.13;;;1.70;;
10479;SDS011;12789;42.610;23.040;2023-04-25T12:52:15;1.42;;;0.85;;
10479;SDS011;12789;42.610;23.040;2023-04-25T12:54:43;1.50;;;1.17;;
10479;SDS011;12789;42.610;23.040;2023-04-25T12:57:10;1.60;;;1.20;;
10479;SDS011;12789;42.610;23.040;2023-04-25T12:59:37;3.53;;;1.15;;
10479;SDS011;12789;42.610;23.040;2023-04-25T13:02:09;2.47;;;1.20;;
10479;SDS011;12789;42.610;23.040;2023-04-25T13:04:38;1.40;;;1.30;;
10479;SDS011;12789;42.610;23.040;2023-04-25T13:07:05;1.77;;;1.67;;
10479;SDS011;12789;42.610;23.040;2023-04-25T13:09:33;1.38;;;1.20;;
10479;SDS011;12789;42.610;23.040;2023-04-25T13:12:00;4.03;;;3.72;;
10479;SDS011;12789;42.610;23.040;2023-04-25T13:17:30;3.00;;;2.70;;
10479;SDS011;12789;42.610;23.040;2023-04-25T13:20:04;2.33;;;1.55;;
10479;SDS011;12789;42.610;23.040;2023-04-25T13:22:34;2.00;;;1.30;;
10479;SDS011;12789;42.610;23.040;2023-04-25T13:25:06;2.15;;;1.70;;
10479;SDS011;12789;42.610;23.040;2023-04-25T13:27:34;2.67;;;1.90;;
10479;SDS011;12789;42.610;23.040;2023-04-25T13:30:02;1.45;;;1.42;;
10479;SDS011;12789;42.610;23.040;2023-04-25T13:32:43;1.05;;;0.90;;
10479;SDS011;12789;42.610;23.040;2023-04-25T13:35:25;2.15;;;1.98;;
10479;SDS011;12789;42.610;23.040;2023-04-25T13:37:55;2.05;;;0.88;;
10479;SDS011;12789;42.610;23.040;2023-04-25T13:40:23;1.40;;;1.13;;
10479;SDS011;12789;42.610;23.040;2023-04-25T13:42:52;1.45;;;1.35;;
10479;SDS011;12789;42.610;23.040;2023-04-25T13:45:26;1.20;;;1.10;;
10479;SDS011;12789;42.610;23.040;2023-04-25T13:48:05;0.90;;;0.90;;
10479;SDS011;12789;42.610;23.040;2023-04-25T13:51:40;0.98;;;0.70;;
10479;SDS011;12789;42.610;23.040;2023-04-25T13:54:24;2.25;;;1.23;;
10479;SDS011;12789;42.610;23.040;2023-04-25T13:57:22;2.13;;;1.10;;
10479;SDS011;12789;42.610;23.040;2023-04-25T14:00:24;1.67;;;0.60;;
10479;SDS011;12789;42.610;23.040;2023-04-25T14:03:47;0.82;;;0.80;;
10479;SDS011;12789;42.610;23.040;2023-04-25T14:06:45;0.82;;;0.70;;
10479;SDS011;12789;42.610;23.040;2023-04-25T14:09:27;2.65;;;1.80;;
10479;SDS011;12789;42.610;23.040;2023-04-25T14:12:13;1.92;;;1.20;;
10479;SDS011;12789;42.610;23.040;2023-04-25T14:17:55;1.50;;;1.40;;
10479;SDS011;12789;42.610;23.040;2023-04-25T14:20:49;2.90;;;2.45;;
10479;SDS011;12789;42.610;23.040;2023-04-25T14:23:55;2.90;;;2.60;;
10479;SDS011;12789;42.610;23.040;2023-04-25T14:26:53;4.78;;;2.00;;
10479;SDS011;12789;42.610;23.040;2023-04-25T14:29:41;1.77;;;1.60;;
10479;SDS011;12789;42.610;23.040;2023-04-25T14:32:44;1.98;;;1.83;;
10479;SDS011;12789;42.610;23.040;2023-04-25T14:38:42;2.97;;;2.75;;
10479;SDS011;12789;42.610;23.040;2023-04-25T14:41:36;4.72;;;3.45;;
10479;SDS011;12789;42.610;23.040;2023-04-25T14:44:39;6.15;;;3.13;;
10479;SDS011;12789;42.610;23.040;2023-04-25T14:47:27;5.18;;;3.80;;
10479;SDS011;12789;42.610;23.040;2023-04-25T14:53:20;7.10;;;3.03;;
10479;SDS011;12789;42.610;23.040;2023-04-25T15:01:49;7.97;;;4.00;;
10479;SDS011;12789;42.610;23.040;2023-04-25T15:04:27;3.97;;;2.88;;
10479;SDS011;12789;42.610;23.040;2023-04-25T15:07:07;4.75;;;3.92;;
10479;SDS011;12789;42.610;23.040;2023-04-25T15:09:36;6.35;;;3.30;;
10479;SDS011;12789;42.610;23.040;2023-04-25T15:13:03;4.47;;;3.78;;
10479;SDS011;12789;42.610;23.040;2023-04-25T15:15:38;24.70;;;17.95;;
10479;SDS011;12789;42.610;23.040;2023-04-25T15:18:30;9.15;;;4.35;;
10479;SDS011;12789;42.610;23.040;2023-04-25T15:21:06;8.88;;;6.32;;
10479;SDS011;12789;42.610;23.040;2023-04-25T15:23:37;8.35;;;5.72;;
10479;SDS011;12789;42.610;23.040;2023-04-25T15:26:13;4.47;;;2.60;;
10479;SDS011;12789;42.610;23.040;2023-04-25T15:28:48;4.05;;;2.47;;
10479;SDS011;12789;42.610;23.040;2023-04-25T15:31:20;9.60;;;2.53;;
10479;SDS011;12789;42.610;23.040;2023-04-25T15:33:54;7.13;;;3.67;;
10479;SDS011;12789;42.610;23.040;2023-04-25T15:36:25;10.27;;;4.50;;
10479;SDS011;12789;42.610;23.040;2023-04-25T15:39:01;9.57;;;3.58;;
10479;SDS011;12789;42.610;23.040;2023-04-25T15:41:34;7.35;;;2.80;;
10479;SDS011;12789;42.610;23.040;2023-04-25T15:44:05;5.63;;;3.08;;
10479;SDS011;12789;42.610;23.040;2023-04-25T15:46:33;2.95;;;2.60;;
10479;SDS011;12789;42.610;23.040;2023-04-25T15:49:13;9.48;;;3.75;;
10479;SDS011;12789;42.610;23.040;2023-04-25T15:51:41;30.45;;;18.55;;
10479;SDS011;12789;42.610;23.040;2023-04-25T15:54:26;21.67;;;15.88;;
10479;SDS011;12789;42.610;23.040;2023-04-25T15:56:55;10.75;;;6.75;;
10479;SDS011;12789;42.610;23.040;2023-04-25T15:59:24;3.50;;;3.13;;
10479;SDS011;12789;42.610;23.040;2023-04-25T16:02:16;3.30;;;2.75;;
10479;SDS011;12789;42.610;23.040;2023-04-25T16:04:49;3.83;;;2.45;;
10479;SDS011;12789;42.610;23.040;2023-04-25T16:07:31;3.88;;;3.45;;
10479;SDS011;12789;42.610;23.040;2023-04-25T16:10:01;8.85;;;5.75;;
10479;SDS011;12789;42.610;23.040;2023-04-25T16:12:31;10.43;;;5.85;;
10479;SDS011;12789;42.610;23.040;2023-04-25T16:15:04;11.70;;;7.20;;
10479;SDS011;12789;42.610;23.040;2023-04-25T16:17:46;11.80;;;7.47;;
10479;SDS011;12789;42.610;23.040;2023-04-25T16:20:19;8.98;;;5.82;;
10479;SDS011;12789;42.610;23.040;2023-04-25T16:22:58;7.32;;;3.95;;
10479;SDS011;12789;42.610;23.040;2023-04-25T16:25:28;3.63;;;2.78;;
10479;SDS011;12789;42.610;23.040;2023-04-25T16:27:57;2.58;;;2.22;;
10479;SDS011;12789;42.610;23.040;2023-04-25T16:30:32;5.22;;;2.50;;
10479;SDS011;12789;42.610;23.040;2023-04-25T16:33:08;3.53;;;2.50;;
10479;SDS011;12789;42.610;23.040;2023-04-25T16:35:55;1.98;;;1.73;;
10479;SDS011;12789;42.610;23.040;2023-04-25T16:38:21;3.03;;;2.47;;
10479;SDS011;12789;42.610;23.040;2023-04-25T16:40:48;2.37;;;2.03;;
10479;SDS011;12789;42.610;23.040;2023-04-25T16:43:21;3.40;;;2.93;;
10479;SDS011;12789;42.610;23.040;2023-04-25T16:45:54;2.20;;;2.00;;
10479;SDS011;12789;42.610;23.040;2023-04-25T16:48:23;2.93;;;2.63;;
10479;SDS011;12789;42.610;23.040;2023-04-25T16:50:56;2.50;;;2.30;;
10479;SDS011;12789;42.610;23.040;2023-04-25T16:53:23;4.63;;;2.37;;
10479;SDS011;12789;42.610;23.040;2023-04-25T16:55:54;2.60;;;2.33;;
10479;SDS011;12789;42.610;23.040;2023-04-25T16:58:28;4.23;;;2.77;;
10479;SDS011;12789;42.610;23.040;2023-04-25T17:00:55;3.37;;;2.77;;
10479;SDS011;12789;42.610;23.040;2023-04-25T17:03:33;5.90;;;3.03;;
10479;SDS011;12789;42.610;23.040;2023-04-25T17:06:01;3.07;;;2.67;;
10479;SDS011;12789;42.610;23.040;2023-04-25T17:08:30;5.43;;;3.27;;
10479;SDS011;12789;42.610;23.040;2023-04-25T17:11:00;2.67;;;1.87;;
10479;SDS011;12789;42.610;23.040;2023-04-25T17:13:32;9.20;;;3.33;;
10479;SDS011;12789;42.610;23.040;2023-04-25T17:15:59;8.97;;;5.20;;
10479;SDS011;12789;42.610;23.040;2023-04-25T17:18:31;3.67;;;2.07;;
10479;SDS011;12789;42.610;23.040;2023-04-25T17:21:05;7.10;;;3.90;;
10479;SDS011;12789;42.610;23.040;2023-04-25T17:23:40;3.17;;;1.87;;
10479;SDS011;12789;42.610;23.040;2023-04-25T17:26:34;7.53;;;3.57;;
10479;SDS011;12789;42.610;23.040;2023-04-25T17:29:05;1.87;;;1.67;;